createdAt,value
2023-01-11T00:01:16.959Z,81.34
2023-01-11T00:04:37.915Z,80.70
2023-01-11T00:07:59.165Z,81.52
2023-01-11T00:11:22.695Z,81.92
2023-01-11T00:14:46.459Z,81.55
2023-01-11T00:18:07.599Z,81.88
2023-01-11T00:21:29.594Z,81.76
2023-01-11T00:24:50.437Z,81.84
2023-01-11T00:28:14.296Z,81.15
2023-01-11T00:31:35.245Z,81.00
2023-01-11T00:34:56.149Z,80.99
2023-01-11T00:38:37.072Z,80.79
2023-01-11T00:42:10.285Z,81.18
2023-01-11T00:45:55.423Z,81.74
2023-01-11T00:49:16.206Z,81.09
2023-01-11T00:52:37.097Z,80.85
2023-01-11T00:55:57.945Z,80.66
2023-01-11T00:59:19.080Z,81.26
2023-01-11T01:02:42.817Z,81.25
2023-01-11T01:06:03.800Z,81.19
2023-01-11T01:09:24.744Z,81.74
2023-01-11T01:12:57.986Z,81.20
2023-01-11T01:16:19.800Z,81.31
2023-01-11T01:19:43.329Z,81.21
2023-01-11T01:23:04.127Z,81.35
2023-01-11T01:26:26.200Z,81.11
2023-01-11T01:29:47.602Z,80.75
2023-01-11T01:33:08.472Z,80.30
2023-01-11T01:36:31.943Z,79.96
2023-01-11T01:39:58.969Z,79.88
2023-01-11T01:43:21.395Z,79.62
2023-01-11T01:46:44.895Z,80.07
2023-01-11T01:50:13.397Z,80.00
2023-01-11T01:53:41.490Z,80.03
2023-01-11T01:57:09.125Z,79.97
2023-01-11T02:00:30.235Z,80.39
2023-01-11T02:03:58.024Z,80.62
2023-01-11T02:07:24.680Z,80.62
2023-01-11T02:10:48.041Z,80.09
2023-01-11T02:14:19.739Z,79.87
2023-01-11T02:17:28.299Z,80.03
2023-01-11T02:21:12.155Z,80.23
2023-01-11T02:24:59.359Z,80.18
2023-01-11T02:28:18.008Z,79.97
2023-01-11T02:31:37.014Z,80.91
2023-01-11T02:34:53.922Z,80.85
2023-01-11T02:38:13.834Z,80.21
2023-01-11T02:41:52.128Z,79.97
2023-01-11T02:45:18.347Z,79.73
2023-01-11T02:48:35.822Z,79.71
2023-01-11T02:51:53.941Z,79.64
2023-01-11T02:55:05.474Z,80.23
2023-01-11T02:58:16.810Z,80.29
2023-01-11T03:01:25.882Z,79.82
2023-01-11T03:04:36.156Z,80.30
2023-01-11T03:08:03.042Z,79.84
2023-01-11T03:11:37.368Z,80.54
2023-01-11T03:15:03.123Z,80.81
2023-01-11T03:18:40.895Z,80.45
2023-01-11T03:22:02.898Z,80.79
2023-01-11T03:25:26.569Z,81.01
2023-01-11T03:28:43.717Z,80.86
2023-01-11T03:32:00.451Z,80.21
2023-01-11T03:35:26.991Z,81.19
2023-01-11T03:38:44.411Z,82.62
2023-01-11T03:41:57.447Z,82.92
2023-01-11T03:45:07.840Z,83.74
2023-01-11T03:48:21.618Z,83.34
2023-01-11T03:51:41.946Z,82.73
2023-01-11T03:54:48.616Z,82.50
2023-01-11T03:57:58.691Z,83.11
2023-01-11T04:01:06.831Z,83.46
2023-01-11T04:04:13.898Z,83.12
2023-01-11T04:07:22.866Z,84.13
2023-01-11T04:10:29.901Z,84.65
2023-01-11T04:13:36.042Z,85.40
2023-01-11T04:16:43.146Z,85.54
2023-01-11T04:19:49.349Z,84.87
2023-01-11T04:22:59.002Z,84.83
2023-01-11T04:26:05.295Z,84.07
2023-01-11T04:29:13.756Z,83.31
2023-01-11T04:32:19.958Z,82.58
2023-01-11T04:35:26.944Z,83.10
2023-01-11T04:38:36.615Z,83.55
2023-01-11T04:41:55.898Z,83.96
2023-01-11T04:45:01.928Z,84.84
2023-01-11T04:48:09.610Z,85.01
2023-01-11T04:51:15.593Z,85.61
2023-01-11T04:54:25.139Z,85.30
2023-01-11T04:57:31.184Z,83.95
2023-01-11T05:00:38.132Z,83.80
2023-01-11T05:03:44.298Z,84.20
2023-01-11T05:06:51.473Z,84.89
2023-01-11T05:10:00.303Z,86.14
2023-01-11T05:13:07.261Z,86.70
2023-01-11T05:16:16.400Z,87.54
2023-01-11T05:19:23.694Z,87.69
2023-01-11T05:22:29.779Z,88.56
2023-01-11T05:25:39.231Z,88.95
2023-01-11T05:28:45.313Z,89.02
2023-01-11T05:31:52.841Z,88.77
2023-01-11T05:34:58.799Z,89.04
2023-01-11T05:38:05.687Z,89.57
2023-01-11T05:41:16.712Z,89.50
2023-01-11T05:44:36.021Z,90.08
2023-01-11T05:47:42.148Z,90.11
2023-01-11T05:50:54.419Z,90.30
2023-01-11T05:54:00.736Z,89.93
2023-01-11T05:57:12.134Z,90.04
2023-01-11T06:00:19.928Z,90.24
2023-01-11T06:03:29.283Z,90.05
2023-01-11T06:06:36.533Z,90.62
2023-01-11T06:09:43.596Z,90.76
2023-01-11T06:13:16.891Z,90.90
2023-01-11T06:16:25.395Z,91.47
2023-01-11T06:19:31.491Z,91.18
2023-01-11T06:22:38.450Z,90.75
2023-01-11T06:25:45.490Z,90.58
2023-01-11T06:28:55.632Z,90.46
2023-01-11T06:32:01.688Z,90.21
2023-01-11T06:35:09.999Z,89.88
2023-01-11T06:38:19.524Z,89.94
2023-01-11T06:41:26.542Z,90.11
2023-01-11T06:44:36.258Z,90.33
2023-01-11T06:47:43.232Z,90.74
2023-01-11T06:50:51.363Z,90.66
2023-01-11T06:53:58.305Z,91.18
2023-01-11T06:57:04.443Z,91.03
2023-01-11T07:00:16.575Z,91.11
2023-01-11T07:03:24.379Z,90.34
2023-01-11T07:06:32.304Z,90.24
2023-01-11T07:09:53.257Z,90.12
2023-01-11T07:13:16.391Z,90.45
2023-01-11T07:16:39.977Z,90.74
2023-01-11T07:20:00.988Z,90.29
2023-01-11T07:23:22.299Z,90.35
2023-01-11T07:26:44.050Z,89.76
2023-01-11T07:29:53.755Z,89.91
2023-01-11T07:33:06.538Z,90.30
2023-01-11T07:36:13.705Z,90.19
2023-01-11T07:39:19.823Z,89.54
2023-01-11T07:42:39.316Z,90.00
2023-01-11T07:45:51.833Z,90.14
2023-01-11T07:49:01.301Z,90.59
2023-01-11T07:52:07.747Z,90.38
2023-01-11T07:55:14.843Z,89.98
2023-01-11T07:58:20.941Z,89.90
2023-01-11T08:01:29.014Z,88.86
2023-01-11T08:04:38.158Z,87.92
2023-01-11T08:07:45.903Z,88.86
2023-01-11T08:11:13.883Z,89.30
2023-01-11T08:14:33.589Z,89.64
2023-01-11T08:17:40.616Z,90.26
2023-01-11T08:20:50.698Z,89.49
2023-01-11T08:23:57.325Z,89.20
2023-01-11T08:27:04.641Z,90.08
2023-01-11T08:30:13.043Z,89.81
2023-01-11T08:33:20.179Z,90.76
2023-01-11T08:36:28.967Z,90.57
2023-01-11T08:39:36.264Z,89.58
2023-01-11T08:42:42.679Z,89.59
2023-01-11T08:45:49.660Z,89.98
2023-01-11T08:48:56.182Z,89.57
2023-01-11T08:52:05.682Z,88.67
2023-01-11T08:55:12.360Z,88.14
2023-01-11T08:58:21.485Z,88.00
2023-01-11T09:01:28.085Z,87.79
2023-01-11T09:04:35.677Z,86.92
2023-01-11T09:07:44.497Z,85.76
2023-01-11T09:10:52.039Z,87.41
2023-01-11T09:13:58.215Z,88.09
2023-01-11T09:17:05.228Z,85.88
2023-01-11T09:20:13.902Z,85.13
2023-01-11T09:23:23.733Z,86.58
2023-01-11T09:26:29.839Z,86.80
2023-01-11T09:29:37.560Z,87.32
2023-01-11T09:32:44.452Z,87.05
2023-01-11T09:35:51.792Z,86.67
2023-01-11T09:39:02.433Z,87.36
2023-01-11T09:42:36.779Z,86.79
2023-01-11T09:45:47.119Z,86.17
2023-01-11T09:49:03.570Z,86.19
2023-01-11T09:52:29.519Z,85.59
2023-01-11T09:55:46.786Z,85.22
2023-01-11T09:59:15.137Z,86.17
2023-01-11T10:02:45.704Z,85.38
2023-01-11T10:06:14.022Z,85.99
2023-01-11T10:18:39.747Z,86.86
2023-01-11T10:20:50.730Z,85.32
2023-01-11T10:24:08.794Z,85.21
2023-01-11T10:27:25.688Z,85.92
2023-01-11T10:30:53.947Z,86.48
2023-01-11T10:34:24.956Z,86.03
2023-01-11T10:37:57.544Z,82.75
2023-01-11T10:41:26.569Z,79.40
2023-01-11T10:44:46.878Z,73.40
2023-01-11T10:48:05.789Z,70.36
2023-01-11T10:51:28.201Z,66.04
2023-01-11T10:54:39.383Z,65.07
2023-01-11T10:58:11.287Z,63.10
2023-01-11T11:01:39.045Z,61.42
2023-01-11T11:05:17.848Z,61.60
2023-01-11T11:08:36.943Z,61.14
2023-01-11T11:11:57.967Z,62.64
2023-01-11T11:15:16.702Z,61.99
2023-01-11T11:18:23.667Z,60.15
2023-01-11T11:21:41.422Z,60.87
2023-01-11T11:24:58.416Z,61.34
2023-01-11T11:28:09.116Z,63.01
2023-01-11T11:31:16.169Z,64.66
2023-01-11T11:34:27.579Z,62.44
2023-01-11T11:37:45.588Z,62.01
2023-01-11T11:41:03.610Z,60.74
2023-01-11T11:44:21.763Z,58.72
2023-01-11T11:47:27.961Z,57.74
2023-01-11T11:50:44.644Z,60.33
2023-01-11T11:53:58.118Z,59.41
2023-01-11T11:57:20.483Z,60.30
2023-01-11T12:00:32.229Z,61.11
2023-01-11T12:03:39.199Z,60.52
2023-01-11T12:06:49.253Z,60.76
2023-01-11T12:10:08.720Z,62.59
2023-01-11T12:13:33.254Z,62.85
2023-01-11T12:16:44.829Z,61.62
2023-01-11T12:19:50.895Z,62.29
2023-01-11T12:23:21.673Z,61.24
2023-01-11T12:26:41.395Z,61.80
2023-01-11T12:30:10.862Z,63.72
2023-01-11T12:33:45.206Z,63.89
2023-01-11T12:37:11.701Z,64.04
2023-01-11T12:40:35.730Z,64.56
2023-01-11T12:44:07.966Z,66.00
2023-01-11T12:47:55.344Z,64.93
2023-01-11T12:51:26.051Z,66.13
2023-01-11T12:54:55.837Z,65.21
2023-01-11T12:58:16.546Z,65.60
2023-01-11T13:01:47.432Z,67.21
2023-01-11T13:05:11.932Z,66.95
2023-01-11T13:08:37.524Z,66.81
2023-01-11T13:12:00.636Z,66.90
2023-01-11T13:15:35.169Z,66.69
2023-01-11T13:19:01.413Z,65.19
2023-01-11T13:22:18.502Z,64.68
2023-01-11T13:25:31.845Z,65.15
2023-01-11T13:28:45.095Z,65.52
2023-01-11T13:31:55.721Z,65.75
2023-01-11T13:35:18.397Z,66.10
2023-01-11T13:38:44.844Z,66.96
2023-01-11T13:41:58.163Z,67.26
2023-01-11T13:45:20.573Z,67.60
2023-01-11T13:48:36.744Z,67.54
2023-01-11T13:51:59.412Z,67.67
2023-01-11T13:55:25.322Z,68.88
2023-01-11T13:58:45.483Z,69.35
2023-01-11T14:02:06.185Z,69.87
2023-01-11T14:05:21.866Z,69.63
2023-01-11T14:09:12.096Z,69.48
2023-01-11T14:12:39.976Z,70.22
2023-01-11T14:16:01.944Z,71.37
2023-01-11T14:19:25.399Z,72.26
2023-01-11T14:22:46.164Z,72.88
2023-01-11T14:26:59.034Z,73.45
2023-01-11T14:30:40.328Z,73.72
2023-01-11T14:34:35.769Z,73.68
2023-01-11T14:38:28.801Z,73.88
2023-01-11T14:42:31.135Z,74.23
2023-01-11T14:46:18.415Z,74.85
2023-01-11T14:50:00.469Z,75.88
2023-01-11T14:53:12.857Z,75.87
2023-01-11T14:56:40.052Z,76.12
2023-01-11T14:59:48.721Z,76.10
2023-01-11T15:03:19.783Z,76.43
2023-01-11T15:06:26.989Z,76.77
2023-01-11T15:09:49.489Z,76.28
2023-01-11T15:13:00.213Z,76.28
2023-01-11T15:16:35.395Z,76.55
2023-01-11T15:19:47.462Z,76.84
2023-01-11T15:23:02.886Z,76.67
2023-01-11T15:26:11.351Z,76.33
2023-01-11T15:29:27.165Z,76.41
2023-01-11T15:32:38.959Z,76.42
2023-01-11T15:36:05.396Z,77.04
2023-01-11T15:39:15.599Z,77.99
2023-01-11T15:43:21.311Z,78.64
2023-01-11T15:47:08.533Z,79.61
2023-01-11T15:50:55.420Z,80.22
2023-01-11T15:54:47.689Z,80.31
2023-01-11T15:58:48.111Z,80.42
2023-01-11T16:02:44.789Z,81.22
2023-01-11T16:06:10.477Z,81.26
2023-01-11T16:09:46.894Z,82.44
2023-01-11T16:13:26.545Z,82.91
2023-01-11T16:16:40.209Z,82.43
2023-01-11T16:19:53.337Z,81.91
2023-01-11T16:23:07.672Z,82.69
2023-01-11T16:26:22.567Z,83.31
2023-01-11T16:29:35.636Z,83.65
2023-01-11T16:32:42.682Z,84.73
2023-01-11T16:35:48.901Z,85.11
2023-01-11T16:39:13.705Z,85.40
2023-01-11T16:42:21.487Z,85.28
2023-01-11T16:45:45.177Z,85.74
2023-01-11T16:48:51.257Z,86.05
2023-01-11T16:52:01.303Z,86.18
2023-01-11T16:55:25.733Z,85.86
2023-01-11T16:58:36.350Z,85.87
2023-01-11T17:01:55.548Z,85.62
2023-01-11T17:05:02.654Z,86.34
2023-01-11T17:08:30.926Z,86.48
2023-01-11T17:11:50.235Z,86.93
2023-01-11T17:15:26.119Z,85.54
2023-01-11T17:18:33.484Z,83.81
2023-01-11T17:21:39.962Z,80.97
2023-01-11T17:24:55.648Z,78.56
2023-01-11T17:28:09.642Z,76.12
2023-01-11T17:31:28.378Z,74.30
2023-01-11T17:34:36.810Z,73.47
2023-01-11T17:37:45.889Z,72.79
2023-01-11T17:40:53.206Z,72.45
2023-01-11T17:44:15.790Z,71.73
2023-01-11T17:47:23.504Z,71.73
2023-01-11T17:50:38.574Z,72.23
2023-01-11T17:53:53.489Z,73.01
2023-01-11T17:57:04.068Z,73.84
2023-01-11T18:00:30.068Z,73.56
2023-01-11T18:03:46.290Z,73.33
2023-01-11T18:06:58.037Z,73.06
2023-01-11T18:10:04.960Z,72.64
2023-01-11T18:13:31.611Z,72.35
2023-01-11T18:17:03.544Z,72.04
2023-01-11T18:20:39.507Z,71.30
2023-01-11T18:23:46.413Z,70.64
2023-01-11T18:27:08.026Z,69.77
2023-01-11T18:30:41.446Z,68.73
2023-01-11T18:33:50.441Z,68.37
2023-01-11T18:37:01.701Z,68.44
2023-01-11T18:40:09.473Z,68.03
2023-01-11T18:43:18.207Z,68.35
2023-01-11T18:46:24.771Z,68.07
2023-01-11T18:49:34.789Z,67.88
2023-01-11T18:52:41.120Z,68.02
2023-01-11T18:55:49.410Z,68.17
2023-01-11T18:58:55.792Z,68.33
2023-01-11T19:05:47.840Z,68.68
2023-01-11T19:08:55.053Z,68.39
2023-01-11T19:12:01.228Z,68.47
2023-01-11T19:15:09.597Z,67.91
2023-01-11T19:18:16.438Z,68.03
2023-01-11T19:21:26.158Z,67.96
2023-01-11T19:24:32.474Z,67.71
2023-01-11T19:27:40.061Z,68.20
2023-01-11T19:30:46.311Z,68.29
2023-01-11T19:33:53.444Z,68.73
2023-01-11T19:37:02.328Z,68.86
2023-01-11T19:40:11.780Z,69.03
2023-01-11T19:43:18.002Z,69.48
2023-01-11T19:46:31.729Z,68.93
2023-01-11T19:49:38.407Z,68.95
2023-01-11T19:52:49.637Z,68.25
2023-01-11T19:55:55.867Z,67.20
2023-01-11T19:59:03.278Z,65.62
2023-01-11T20:02:10.086Z,64.09
2023-01-11T20:05:17.113Z,62.92
2023-01-11T20:08:25.933Z,62.15
2023-01-11T20:11:32.967Z,61.61
2023-01-11T20:14:40.898Z,61.85
2023-01-11T20:17:48.128Z,60.85
2023-01-11T20:20:59.075Z,60.56
2023-01-11T20:24:09.991Z,60.10
2023-01-11T20:27:16.304Z,60.27
2023-01-11T20:30:23.677Z,60.19
2023-01-11T20:33:30.952Z,59.99
2023-01-11T20:36:38.069Z,59.85
2023-01-11T20:39:47.252Z,59.89
2023-01-11T20:42:54.375Z,59.52
2023-01-11T20:46:00.596Z,59.74
2023-01-11T20:49:10.033Z,59.63
2023-01-11T20:52:16.564Z,59.50
2023-01-11T20:55:26.431Z,59.51
2023-01-11T20:58:32.788Z,59.03
2023-01-11T21:01:41.254Z,58.55
2023-01-11T21:04:47.355Z,59.03
2023-01-11T21:07:56.617Z,58.82
2023-01-11T21:11:12.474Z,59.07
2023-01-11T21:14:19.579Z,59.76
2023-01-11T21:17:25.774Z,60.47
2023-01-11T21:20:33.504Z,60.62
2023-01-11T21:23:39.593Z,61.21
2023-01-11T21:26:49.340Z,62.04
2023-01-11T21:29:55.508Z,62.96
2023-01-11T21:33:02.543Z,64.33
2023-01-11T21:36:14.076Z,65.67
2023-01-11T21:39:21.576Z,65.96
2023-01-11T21:42:30.646Z,65.56
2023-01-11T21:45:37.647Z,64.68
2023-01-11T21:48:43.719Z,63.93
2023-01-11T21:51:50.725Z,63.80
2023-01-11T21:54:56.907Z,63.25
2023-01-11T21:58:06.441Z,63.24
2023-01-11T22:01:14.475Z,63.25
2023-01-11T22:04:24.776Z,63.02
2023-01-11T22:07:32.074Z,63.68
2023-01-11T22:10:39.572Z,63.80
2023-01-11T22:13:48.651Z,64.13
2023-01-11T22:16:56.434Z,64.72
2023-01-11T22:20:02.513Z,65.17
2023-01-11T22:23:09.377Z,65.71
2023-01-11T22:26:17.978Z,66.11
2023-01-11T22:29:29.749Z,66.96
2023-01-11T22:32:35.887Z,67.28
2023-01-11T22:35:43.001Z,68.29
2023-01-11T22:38:49.654Z,69.88
2023-01-11T22:41:56.760Z,71.23
2023-01-11T22:45:05.683Z,72.56
2023-01-11T22:48:12.636Z,74.19
2023-01-11T22:51:22.273Z,75.61
2023-01-11T22:54:29.402Z,76.16
2023-01-11T22:57:35.610Z,76.90
2023-01-11T23:00:45.263Z,77.72
2023-01-11T23:03:52.092Z,78.77
2023-01-11T23:06:59.354Z,79.48
2023-01-11T23:10:08.792Z,80.25
2023-01-11T23:13:28.190Z,81.12
2023-01-11T23:16:37.369Z,81.47
2023-01-11T23:19:45.874Z,82.33
2023-01-11T23:22:53.932Z,82.89
2023-01-11T23:26:00.953Z,83.79
2023-01-11T23:29:08.267Z,84.63
2023-01-11T23:32:17.757Z,84.50
2023-01-11T23:35:24.194Z,85.42
2023-01-11T23:38:34.328Z,85.09
2023-01-11T23:41:52.792Z,85.74
2023-01-11T23:45:01.188Z,85.51
2023-01-11T23:48:07.495Z,85.49
2023-01-11T23:51:14.455Z,85.95
2023-01-11T23:54:20.873Z,86.09
2023-01-11T23:57:29.704Z,86.10
